Warwick, Rhode Island
Current Conditions -  °F | °C
As of 9:51 AM on Friday 31 Oct 2014 (Local Time) from KPVD Reporting Station
Broken Clouds Broken Clouds  
Wind Chill: 50°   Ceiling: 5000
Heat Index: 50°   Visibility: 10mi
Dew Point: 40°   Wind: 7mph
Humidity: 68%   Direction: 20°NNE
Pressure: 30.02"   Gusts: NA
Location:  41.7°N, 71.46°W
Report Text: KPVD 311351Z 02006KT 10SM BKN050 10/04 A3002 RMK AO2 SLP167 T01000044
Loading
Personal Weather Stations






























Interactive Weather Map
Tropical Storm Tracking
New forecast layout! Learn more

10-Day Weather Forecast

Advertisements
Track Severe Weather on mobile